메인 페이지
METAR-TAF:

METAR-TAF

공항 :

Tri-City Airport

Parsons, 캔자스, 미국

위도: 37-19-40N, 경도: 095-30-15W, 고도: 274m

현재 날씨관측

예보는 19분 전, 10:52시(UTC)에 발표되었습니다.
무풍
온도 -4°C
습도 86%
기압 1026 hPa
맑음

METAR: KPPF 171052Z AUTO 00000KT CLR M04/M06 A3029 RMK AO2 SLP262 I1000 T10441056

시각: 05:11 (11:11 UTC)


TAF: 누락

4,000개 이상의 공항 관측 자료 및 예보 (METAR 및 TAF 보고).

지도상에서 검색 가능한 기상관측소가 노란 점과 빨간 점으로 표시되어 있습니다.

기상관측소 명을 보려면 표시 위로 마우스를 이동하세요.

날씨 관측과 예보를 보려면 클릭하세요.

지도 변경 : 확대하려면 엑스 표시가 있는 녹색 버튼, 축소하려면 빼기 표시가 있는 녹색 버튼, 다음 페이지의 지도를 보려면 녹색 화살표를 클릭하세요.


METAR-TAF: